sensor_id;sensor_type;location;lat;lon;timestamp;P1;durP1;ratioP1;P2;durP2;ratioP2
23230;SDS011;11784;49.818;8.632;2024-02-21T00:00:01;9.13;;;3.40;;
23230;SDS011;11784;49.818;8.632;2024-02-21T00:02:27;11.45;;;4.18;;
23230;SDS011;11784;49.818;8.632;2024-02-21T00:04:53;16.65;;;4.28;;
23230;SDS011;11784;49.818;8.632;2024-02-21T00:07:19;12.65;;;3.47;;
23230;SDS011;11784;49.818;8.632;2024-02-21T00:09:45;16.55;;;3.85;;
23230;SDS011;11784;49.818;8.632;2024-02-21T00:12:11;13.90;;;4.32;;
23230;SDS011;11784;49.818;8.632;2024-02-21T00:14:38;7.80;;;3.63;;
23230;SDS011;11784;49.818;8.632;2024-02-21T00:17:05;11.90;;;4.00;;
23230;SDS011;11784;49.818;8.632;2024-02-21T00:19:31;12.35;;;4.32;;
23230;SDS011;11784;49.818;8.632;2024-02-21T00:21:57;12.75;;;3.70;;
23230;SDS011;11784;49.818;8.632;2024-02-21T00:24:23;10.23;;;3.95;;
23230;SDS011;11784;49.818;8.632;2024-02-21T00:26:49;13.10;;;3.95;;
23230;SDS011;11784;49.818;8.632;2024-02-21T00:29:15;11.48;;;3.45;;
23230;SDS011;11784;49.818;8.632;2024-02-21T00:31:41;10.73;;;3.90;;
23230;SDS011;11784;49.818;8.632;2024-02-21T00:34:06;12.20;;;3.92;;
23230;SDS011;11784;49.818;8.632;2024-02-21T00:36:32;15.77;;;3.75;;
23230;SDS011;11784;49.818;8.632;2024-02-21T00:38:58;9.25;;;3.78;;
23230;SDS011;11784;49.818;8.632;2024-02-21T00:41:24;13.25;;;3.63;;
23230;SDS011;11784;49.818;8.632;2024-02-21T00:43:51;14.57;;;4.05;;
23230;SDS011;11784;49.818;8.632;2024-02-21T00:46:16;10.57;;;4.20;;
23230;SDS011;11784;49.818;8.632;2024-02-21T00:48:42;13.65;;;4.38;;
23230;SDS011;11784;49.818;8.632;2024-02-21T00:51:08;9.85;;;3.92;;
23230;SDS011;11784;49.818;8.632;2024-02-21T00:53:34;13.13;;;3.85;;
23230;SDS011;11784;49.818;8.632;2024-02-21T00:56:03;16.27;;;4.20;;
23230;SDS011;11784;49.818;8.632;2024-02-21T00:58:30;17.25;;;4.38;;
23230;SDS011;11784;49.818;8.632;2024-02-21T01:00:56;12.15;;;3.97;;
23230;SDS011;11784;49.818;8.632;2024-02-21T01:03:22;13.07;;;4.13;;
23230;SDS011;11784;49.818;8.632;2024-02-21T01:05:47;14.45;;;3.85;;
23230;SDS011;11784;49.818;8.632;2024-02-21T01:08:13;13.07;;;4.07;;
23230;SDS011;11784;49.818;8.632;2024-02-21T01:10:39;11.45;;;3.47;;
23230;SDS011;11784;49.818;8.632;2024-02-21T01:13:06;16.00;;;4.60;;
23230;SDS011;11784;49.818;8.632;2024-02-21T01:15:32;16.80;;;4.88;;
23230;SDS011;11784;49.818;8.632;2024-02-21T01:17:58;15.52;;;4.03;;
23230;SDS011;11784;49.818;8.632;2024-02-21T01:20:24;9.82;;;4.18;;
23230;SDS011;11784;49.818;8.632;2024-02-21T01:22:50;12.40;;;4.22;;
23230;SDS011;11784;49.818;8.632;2024-02-21T01:25:16;10.98;;;3.85;;
23230;SDS011;11784;49.818;8.632;2024-02-21T01:27:42;15.00;;;4.35;;
23230;SDS011;11784;49.818;8.632;2024-02-21T01:30:08;16.95;;;4.32;;
23230;SDS011;11784;49.818;8.632;2024-02-21T01:32:35;12.27;;;3.95;;
23230;SDS011;11784;49.818;8.632;2024-02-21T01:35:01;8.52;;;3.60;;
23230;SDS011;11784;49.818;8.632;2024-02-21T01:37:27;10.88;;;3.80;;
23230;SDS011;11784;49.818;8.632;2024-02-21T01:39:53;13.07;;;4.35;;
23230;SDS011;11784;49.818;8.632;2024-02-21T01:42:19;12.35;;;3.50;;
23230;SDS011;11784;49.818;8.632;2024-02-21T01:44:45;8.40;;;3.60;;
23230;SDS011;11784;49.818;8.632;2024-02-21T01:47:11;10.52;;;3.88;;
23230;SDS011;11784;49.818;8.632;2024-02-21T01:49:39;13.57;;;3.78;;
23230;SDS011;11784;49.818;8.632;2024-02-21T01:52:05;10.65;;;3.72;;
23230;SDS011;11784;49.818;8.632;2024-02-21T01:54:32;16.85;;;3.92;;
23230;SDS011;11784;49.818;8.632;2024-02-21T01:56:58;13.60;;;3.97;;
23230;SDS011;11784;49.818;8.632;2024-02-21T01:59:24;11.73;;;3.88;;
23230;SDS011;11784;49.818;8.632;2024-02-21T02:01:50;14.80;;;3.75;;
23230;SDS011;11784;49.818;8.632;2024-02-21T02:04:18;15.65;;;5.25;;
23230;SDS011;11784;49.818;8.632;2024-02-21T02:06:44;14.05;;;3.63;;
23230;SDS011;11784;49.818;8.632;2024-02-21T02:09:10;8.98;;;3.10;;
23230;SDS011;11784;49.818;8.632;2024-02-21T02:11:37;13.77;;;3.72;;
23230;SDS011;11784;49.818;8.632;2024-02-21T02:14:03;14.57;;;4.32;;
23230;SDS011;11784;49.818;8.632;2024-02-21T02:16:29;13.68;;;3.80;;
23230;SDS011;11784;49.818;8.632;2024-02-21T02:18:55;12.63;;;3.72;;
23230;SDS011;11784;49.818;8.632;2024-02-21T02:21:29;9.18;;;3.67;;
23230;SDS011;11784;49.818;8.632;2024-02-21T02:23:55;14.50;;;3.58;;
23230;SDS011;11784;49.818;8.632;2024-02-21T02:26:21;10.25;;;3.72;;
23230;SDS011;11784;49.818;8.632;2024-02-21T02:28:47;11.38;;;3.72;;
23230;SDS011;11784;49.818;8.632;2024-02-21T02:31:13;11.40;;;3.38;;
23230;SDS011;11784;49.818;8.632;2024-02-21T02:33:39;8.07;;;3.35;;
23230;SDS011;11784;49.818;8.632;2024-02-21T02:36:05;14.82;;;3.53;;
23230;SDS011;11784;49.818;8.632;2024-02-21T02:38:31;15.77;;;3.78;;
23230;SDS011;11784;49.818;8.632;2024-02-21T02:40:57;12.07;;;3.22;;
23230;SDS011;11784;49.818;8.632;2024-02-21T02:43:23;9.35;;;3.47;;
23230;SDS011;11784;49.818;8.632;2024-02-21T02:45:49;12.75;;;2.97;;
23230;SDS011;11784;49.818;8.632;2024-02-21T02:48:15;16.10;;;3.30;;
23230;SDS011;11784;49.818;8.632;2024-02-21T02:50:41;12.20;;;3.40;;
23230;SDS011;11784;49.818;8.632;2024-02-21T02:53:07;13.73;;;3.35;;
23230;SDS011;11784;49.818;8.632;2024-02-21T02:55:33;13.90;;;3.47;;
23230;SDS011;11784;49.818;8.632;2024-02-21T02:58:00;11.77;;;3.67;;
23230;SDS011;11784;49.818;8.632;2024-02-21T03:00:26;16.70;;;3.35;;
23230;SDS011;11784;49.818;8.632;2024-02-21T03:02:52;10.20;;;3.20;;
23230;SDS011;11784;49.818;8.632;2024-02-21T03:05:19;13.38;;;3.60;;
23230;SDS011;11784;49.818;8.632;2024-02-21T03:07:45;14.77;;;3.20;;
23230;SDS011;11784;49.818;8.632;2024-02-21T03:10:11;11.30;;;3.45;;
23230;SDS011;11784;49.818;8.632;2024-02-21T03:12:38;16.98;;;4.20;;
23230;SDS011;11784;49.818;8.632;2024-02-21T03:15:04;10.40;;;3.80;;
23230;SDS011;11784;49.818;8.632;2024-02-21T03:17:30;5.65;;;3.00;;
23230;SDS011;11784;49.818;8.632;2024-02-21T03:19:57;7.18;;;3.03;;
23230;SDS011;11784;49.818;8.632;2024-02-21T03:22:25;12.15;;;3.33;;
23230;SDS011;11784;49.818;8.632;2024-02-21T03:24:51;7.72;;;3.03;;
23230;SDS011;11784;49.818;8.632;2024-02-21T03:27:17;12.55;;;3.50;;
23230;SDS011;11784;49.818;8.632;2024-02-21T03:29:43;12.38;;;3.30;;
23230;SDS011;11784;49.818;8.632;2024-02-21T03:32:09;9.10;;;3.58;;
23230;SDS011;11784;49.818;8.632;2024-02-21T03:34:34;11.57;;;3.83;;
23230;SDS011;11784;49.818;8.632;2024-02-21T03:37:00;8.45;;;3.05;;
23230;SDS011;11784;49.818;8.632;2024-02-21T03:39:27;9.27;;;3.45;;
23230;SDS011;11784;49.818;8.632;2024-02-21T03:41:52;8.15;;;3.78;;
23230;SDS011;11784;49.818;8.632;2024-02-21T03:44:18;12.40;;;3.40;;
23230;SDS011;11784;49.818;8.632;2024-02-21T03:46:44;9.98;;;4.03;;
23230;SDS011;11784;49.818;8.632;2024-02-21T03:49:10;9.18;;;3.17;;
23230;SDS011;11784;49.818;8.632;2024-02-21T03:51:36;9.80;;;3.00;;
23230;SDS011;11784;49.818;8.632;2024-02-21T03:54:02;16.77;;;3.85;;
23230;SDS011;11784;49.818;8.632;2024-02-21T03:56:28;9.77;;;3.10;;
23230;SDS011;11784;49.818;8.632;2024-02-21T03:58:54;9.27;;;2.72;;
23230;SDS011;11784;49.818;8.632;2024-02-21T04:01:20;9.25;;;2.78;;
23230;SDS011;11784;49.818;8.632;2024-02-21T04:03:46;12.07;;;3.28;;
23230;SDS011;11784;49.818;8.632;2024-02-21T04:06:12;12.27;;;3.30;;
23230;SDS011;11784;49.818;8.632;2024-02-21T04:08:38;7.63;;;2.85;;
23230;SDS011;11784;49.818;8.632;2024-02-21T04:11:04;10.43;;;3.47;;
23230;SDS011;11784;49.818;8.632;2024-02-21T04:13:30;7.80;;;2.80;;
23230;SDS011;11784;49.818;8.632;2024-02-21T04:15:56;11.02;;;3.30;;
23230;SDS011;11784;49.818;8.632;2024-02-21T04:18:22;12.52;;;3.30;;
23230;SDS011;11784;49.818;8.632;2024-02-21T04:20:50;14.18;;;3.53;;
23230;SDS011;11784;49.818;8.632;2024-02-21T04:23:16;11.45;;;3.10;;
23230;SDS011;11784;49.818;8.632;2024-02-21T04:25:42;12.32;;;3.08;;
23230;SDS011;11784;49.818;8.632;2024-02-21T04:28:08;13.02;;;4.22;;
23230;SDS011;11784;49.818;8.632;2024-02-21T04:30:33;10.10;;;3.72;;
23230;SDS011;11784;49.818;8.632;2024-02-21T04:32:59;11.68;;;3.58;;
23230;SDS011;11784;49.818;8.632;2024-02-21T04:35:25;8.27;;;3.25;;
23230;SDS011;11784;49.818;8.632;2024-02-21T04:37:51;13.32;;;2.90;;
23230;SDS011;11784;49.818;8.632;2024-02-21T04:40:17;11.25;;;3.83;;
23230;SDS011;11784;49.818;8.632;2024-02-21T04:42:43;11.70;;;3.35;;
23230;SDS011;11784;49.818;8.632;2024-02-21T04:45:09;11.60;;;3.88;;
23230;SDS011;11784;49.818;8.632;2024-02-21T04:47:35;12.15;;;3.00;;
23230;SDS011;11784;49.818;8.632;2024-02-21T04:50:01;13.13;;;3.33;;
23230;SDS011;11784;49.818;8.632;2024-02-21T04:52:27;14.07;;;3.08;;
23230;SDS011;11784;49.818;8.632;2024-02-21T04:54:53;13.77;;;2.97;;
23230;SDS011;11784;49.818;8.632;2024-02-21T04:57:19;11.82;;;3.53;;
23230;SDS011;11784;49.818;8.632;2024-02-21T04:59:45;12.38;;;3.88;;
23230;SDS011;11784;49.818;8.632;2024-02-21T05:02:14;13.60;;;4.43;;
23230;SDS011;11784;49.818;8.632;2024-02-21T05:04:41;12.77;;;3.15;;
23230;SDS011;11784;49.818;8.632;2024-02-21T05:07:07;14.00;;;4.35;;
23230;SDS011;11784;49.818;8.632;2024-02-21T05:09:33;13.68;;;3.90;;
23230;SDS011;11784;49.818;8.632;2024-02-21T05:11:59;12.45;;;4.20;;
23230;SDS011;11784;49.818;8.632;2024-02-21T05:14:26;7.60;;;3.15;;
23230;SDS011;11784;49.818;8.632;2024-02-21T05:16:52;10.52;;;3.67;;
23230;SDS011;11784;49.818;8.632;2024-02-21T05:19:18;8.15;;;2.47;;
23230;SDS011;11784;49.818;8.632;2024-02-21T05:21:44;7.78;;;2.78;;
23230;SDS011;11784;49.818;8.632;2024-02-21T05:24:10;6.85;;;2.70;;
23230;SDS011;11784;49.818;8.632;2024-02-21T05:26:36;11.10;;;3.30;;
23230;SDS011;11784;49.818;8.632;2024-02-21T05:29:02;12.75;;;3.28;;
23230;SDS011;11784;49.818;8.632;2024-02-21T05:34:13;10.13;;;3.15;;
23230;SDS011;11784;49.818;8.632;2024-02-21T05:36:39;10.93;;;3.33;;
23230;SDS011;11784;49.818;8.632;2024-02-21T05:39:05;13.05;;;3.13;;
23230;SDS011;11784;49.818;8.632;2024-02-21T05:41:31;8.55;;;2.97;;
23230;SDS011;11784;49.818;8.632;2024-02-21T05:43:57;12.13;;;3.58;;
23230;SDS011;11784;49.818;8.632;2024-02-21T05:46:23;7.07;;;2.35;;
23230;SDS011;11784;49.818;8.632;2024-02-21T05:48:49;8.27;;;2.80;;
23230;SDS011;11784;49.818;8.632;2024-02-21T05:51:15;6.30;;;2.70;;
23230;SDS011;11784;49.818;8.632;2024-02-21T05:53:41;8.80;;;3.20;;
23230;SDS011;11784;49.818;8.632;2024-02-21T05:56:10;9.80;;;3.55;;
23230;SDS011;11784;49.818;8.632;2024-02-21T05:58:36;5.07;;;2.10;;
23230;SDS011;11784;49.818;8.632;2024-02-21T06:01:02;15.15;;;3.10;;
23230;SDS011;11784;49.818;8.632;2024-02-21T06:03:29;11.52;;;3.00;;
23230;SDS011;11784;49.818;8.632;2024-02-21T06:05:55;9.00;;;3.10;;
23230;SDS011;11784;49.818;8.632;2024-02-21T06:08:21;7.90;;;2.60;;
23230;SDS011;11784;49.818;8.632;2024-02-21T06:10:47;9.57;;;3.63;;
23230;SDS011;11784;49.818;8.632;2024-02-21T06:13:14;8.90;;;2.78;;
23230;SDS011;11784;49.818;8.632;2024-02-21T06:15:40;10.10;;;3.25;;
23230;SDS011;11784;49.818;8.632;2024-02-21T06:18:05;11.73;;;3.13;;
23230;SDS011;11784;49.818;8.632;2024-02-21T06:20:32;9.50;;;3.28;;
23230;SDS011;11784;49.818;8.632;2024-02-21T06:22:58;11.20;;;3.05;;
23230;SDS011;11784;49.818;8.632;2024-02-21T06:25:23;8.70;;;3.13;;
23230;SDS011;11784;49.818;8.632;2024-02-21T06:27:49;8.02;;;2.80;;
23230;SDS011;11784;49.818;8.632;2024-02-21T06:30:15;13.57;;;2.83;;
23230;SDS011;11784;49.818;8.632;2024-02-21T06:32:41;9.95;;;3.45;;
23230;SDS011;11784;49.818;8.632;2024-02-21T06:35:07;10.98;;;3.03;;
23230;SDS011;11784;49.818;8.632;2024-02-21T06:37:33;9.02;;;3.25;;
23230;SDS011;11784;49.818;8.632;2024-02-21T06:39:59;7.65;;;2.78;;
23230;SDS011;11784;49.818;8.632;2024-02-21T06:42:25;12.07;;;3.60;;
23230;SDS011;11784;49.818;8.632;2024-02-21T06:44:51;12.88;;;3.22;;
23230;SDS011;11784;49.818;8.632;2024-02-21T06:47:17;11.68;;;3.00;;
23230;SDS011;11784;49.818;8.632;2024-02-21T06:49:47;10.35;;;3.10;;
23230;SDS011;11784;49.818;8.632;2024-02-21T06:52:13;11.25;;;3.00;;
23230;SDS011;11784;49.818;8.632;2024-02-21T06:54:42;6.28;;;2.88;;
23230;SDS011;11784;49.818;8.632;2024-02-21T06:57:08;12.60;;;3.92;;
23230;SDS011;11784;49.818;8.632;2024-02-21T06:59:34;12.15;;;3.80;;
23230;SDS011;11784;49.818;8.632;2024-02-21T07:01:59;7.65;;;3.05;;
23230;SDS011;11784;49.818;8.632;2024-02-21T07:04:25;18.20;;;3.55;;
23230;SDS011;11784;49.818;8.632;2024-02-21T07:06:52;13.93;;;4.13;;
23230;SDS011;11784;49.818;8.632;2024-02-21T07:09:18;6.68;;;2.65;;
23230;SDS011;11784;49.818;8.632;2024-02-21T07:11:44;10.80;;;3.20;;
23230;SDS011;11784;49.818;8.632;2024-02-21T07:14:10;17.00;;;4.32;;
23230;SDS011;11784;49.818;8.632;2024-02-21T07:16:36;14.07;;;3.80;;
23230;SDS011;11784;49.818;8.632;2024-02-21T07:19:02;12.65;;;3.50;;
23230;SDS011;11784;49.818;8.632;2024-02-21T07:21:28;12.52;;;3.05;;
23230;SDS011;11784;49.818;8.632;2024-02-21T07:23:54;10.50;;;3.38;;
23230;SDS011;11784;49.818;8.632;2024-02-21T07:26:20;7.97;;;3.15;;
23230;SDS011;11784;49.818;8.632;2024-02-21T07:28:46;12.80;;;3.80;;
23230;SDS011;11784;49.818;8.632;2024-02-21T07:31:12;12.02;;;2.90;;
23230;SDS011;11784;49.818;8.632;2024-02-21T07:33:38;11.90;;;3.42;;
23230;SDS011;11784;49.818;8.632;2024-02-21T07:36:07;8.57;;;2.70;;
23230;SDS011;11784;49.818;8.632;2024-02-21T07:38:33;16.48;;;3.30;;
23230;SDS011;11784;49.818;8.632;2024-02-21T07:40:59;11.73;;;3.47;;
23230;SDS011;11784;49.818;8.632;2024-02-21T07:43:25;10.30;;;2.88;;
23230;SDS011;11784;49.818;8.632;2024-02-21T07:45:51;8.48;;;3.33;;
23230;SDS011;11784;49.818;8.632;2024-02-21T07:48:18;7.63;;;3.20;;
23230;SDS011;11784;49.818;8.632;2024-02-21T07:50:44;9.32;;;3.25;;
23230;SDS011;11784;49.818;8.632;2024-02-21T07:53:10;10.82;;;3.30;;
23230;SDS011;11784;49.818;8.632;2024-02-21T07:55:36;7.00;;;3.25;;
23230;SDS011;11784;49.818;8.632;2024-02-21T07:58:02;12.88;;;3.20;;
23230;SDS011;11784;49.818;8.632;2024-02-21T08:00:29;7.22;;;3.03;;
23230;SDS011;11784;49.818;8.632;2024-02-21T08:02:55;9.48;;;3.30;;
23230;SDS011;11784;49.818;8.632;2024-02-21T08:05:21;12.38;;;3.10;;
23230;SDS011;11784;49.818;8.632;2024-02-21T08:07:48;10.15;;;3.25;;
23230;SDS011;11784;49.818;8.632;2024-02-21T08:10:14;10.88;;;3.28;;
23230;SDS011;11784;49.818;8.632;2024-02-21T08:12:40;13.35;;;3.72;;
23230;SDS011;11784;49.818;8.632;2024-02-21T08:15:06;8.68;;;3.13;;
23230;SDS011;11784;49.818;8.632;2024-02-21T08:17:36;7.15;;;2.15;;
23230;SDS011;11784;49.818;8.632;2024-02-21T08:20:03;8.63;;;3.33;;
23230;SDS011;11784;49.818;8.632;2024-02-21T08:22:29;9.27;;;2.72;;
23230;SDS011;11784;49.818;8.632;2024-02-21T08:24:55;9.65;;;3.00;;
23230;SDS011;11784;49.818;8.632;2024-02-21T08:27:21;7.07;;;2.70;;
23230;SDS011;11784;49.818;8.632;2024-02-21T08:29:47;11.48;;;2.90;;
23230;SDS011;11784;49.818;8.632;2024-02-21T08:32:13;10.40;;;2.65;;
23230;SDS011;11784;49.818;8.632;2024-02-21T08:34:39;9.70;;;3.03;;
23230;SDS011;11784;49.818;8.632;2024-02-21T08:37:05;7.97;;;3.13;;
23230;SDS011;11784;49.818;8.632;2024-02-21T08:39:31;8.30;;;3.28;;
23230;SDS011;11784;49.818;8.632;2024-02-21T08:41:57;7.38;;;2.55;;
23230;SDS011;11784;49.818;8.632;2024-02-21T08:44:23;9.68;;;2.92;;
23230;SDS011;11784;49.818;8.632;2024-02-21T08:46:51;6.25;;;2.30;;
23230;SDS011;11784;49.818;8.632;2024-02-21T08:49:16;9.80;;;4.22;;
23230;SDS011;11784;49.818;8.632;2024-02-21T08:51:42;7.15;;;2.53;;
23230;SDS011;11784;49.818;8.632;2024-02-21T08:54:08;11.95;;;3.22;;
23230;SDS011;11784;49.818;8.632;2024-02-21T08:56:34;13.90;;;3.20;;
23230;SDS011;11784;49.818;8.632;2024-02-21T08:59:01;8.75;;;2.85;;
23230;SDS011;11784;49.818;8.632;2024-02-21T09:01:27;6.35;;;2.92;;
23230;SDS011;11784;49.818;8.632;2024-02-21T09:03:53;11.30;;;2.60;;
23230;SDS011;11784;49.818;8.632;2024-02-21T09:06:21;16.58;;;3.75;;
23230;SDS011;11784;49.818;8.632;2024-02-21T09:08:47;10.25;;;3.55;;
23230;SDS011;11784;49.818;8.632;2024-02-21T09:11:13;11.00;;;3.20;;
23230;SDS011;11784;49.818;8.632;2024-02-21T09:13:39;16.25;;;3.38;;
23230;SDS011;11784;49.818;8.632;2024-02-21T09:16:05;11.20;;;3.05;;
23230;SDS011;11784;49.818;8.632;2024-02-21T09:18:31;10.35;;;3.92;;
23230;SDS011;11784;49.818;8.632;2024-02-21T09:20:58;7.82;;;3.33;;
23230;SDS011;11784;49.818;8.632;2024-02-21T09:23:25;10.65;;;3.40;;
23230;SDS011;11784;49.818;8.632;2024-02-21T09:25:51;10.05;;;2.75;;
23230;SDS011;11784;49.818;8.632;2024-02-21T09:28:17;10.68;;;3.15;;
23230;SDS011;11784;49.818;8.632;2024-02-21T09:30:43;9.13;;;3.17;;
23230;SDS011;11784;49.818;8.632;2024-02-21T09:33:09;13.82;;;3.70;;
23230;SDS011;11784;49.818;8.632;2024-02-21T09:35:35;12.65;;;3.45;;
23230;SDS011;11784;49.818;8.632;2024-02-21T09:38:01;7.63;;;3.33;;
23230;SDS011;11784;49.818;8.632;2024-02-21T09:40:28;15.18;;;3.63;;
23230;SDS011;11784;49.818;8.632;2024-02-21T09:42:58;18.13;;;3.85;;
23230;SDS011;11784;49.818;8.632;2024-02-21T09:45:28;8.80;;;3.20;;
23230;SDS011;11784;49.818;8.632;2024-02-21T09:50:40;10.43;;;3.00;;
23230;SDS011;11784;49.818;8.632;2024-02-21T09:53:06;7.93;;;2.65;;
23230;SDS011;11784;49.818;8.632;2024-02-21T09:55:35;7.60;;;2.28;;
23230;SDS011;11784;49.818;8.632;2024-02-21T09:58:05;12.25;;;2.60;;
23230;SDS011;11784;49.818;8.632;2024-02-21T10:00:31;6.13;;;2.42;;
23230;SDS011;11784;49.818;8.632;2024-02-21T10:02:58;9.52;;;2.83;;
23230;SDS011;11784;49.818;8.632;2024-02-21T10:05:24;13.55;;;2.83;;
23230;SDS011;11784;49.818;8.632;2024-02-21T10:07:51;8.02;;;2.95;;
23230;SDS011;11784;49.818;8.632;2024-02-21T10:10:17;12.75;;;3.17;;
23230;SDS011;11784;49.818;8.632;2024-02-21T10:12:49;10.32;;;2.97;;
23230;SDS011;11784;49.818;8.632;2024-02-21T10:15:19;9.60;;;2.55;;
23230;SDS011;11784;49.818;8.632;2024-02-21T10:17:46;8.07;;;2.70;;
23230;SDS011;11784;49.818;8.632;2024-02-21T10:20:12;11.15;;;2.65;;
23230;SDS011;11784;49.818;8.632;2024-02-21T10:22:40;7.85;;;2.97;;
23230;SDS011;11784;49.818;8.632;2024-02-21T10:25:09;10.25;;;3.53;;
23230;SDS011;11784;49.818;8.632;2024-02-21T10:27:36;11.65;;;3.55;;
23230;SDS011;11784;49.818;8.632;2024-02-21T10:30:02;5.97;;;2.53;;
23230;SDS011;11784;49.818;8.632;2024-02-21T10:32:29;7.28;;;2.60;;
23230;SDS011;11784;49.818;8.632;2024-02-21T10:35:02;9.30;;;2.38;;
23230;SDS011;11784;49.818;8.632;2024-02-21T10:37:31;8.10;;;2.95;;
23230;SDS011;11784;49.818;8.632;2024-02-21T10:39:57;6.88;;;2.53;;
23230;SDS011;11784;49.818;8.632;2024-02-21T10:42:24;10.02;;;2.85;;
23230;SDS011;11784;49.818;8.632;2024-02-21T10:44:55;9.85;;;2.83;;
23230;SDS011;11784;49.818;8.632;2024-02-21T10:47:26;10.82;;;3.22;;
23230;SDS011;11784;49.818;8.632;2024-02-21T10:49:57;8.05;;;3.33;;
23230;SDS011;11784;49.818;8.632;2024-02-21T10:55:03;11.73;;;3.42;;
23230;SDS011;11784;49.818;8.632;2024-02-21T10:57:34;11.85;;;3.42;;
23230;SDS011;11784;49.818;8.632;2024-02-21T11:00:00;13.60;;;2.25;;
23230;SDS011;11784;49.818;8.632;2024-02-21T11:02:28;11.13;;;3.35;;
23230;SDS011;11784;49.818;8.632;2024-02-21T11:04:56;10.20;;;2.70;;
23230;SDS011;11784;49.818;8.632;2024-02-21T11:07:23;12.98;;;2.95;;
23230;SDS011;11784;49.818;8.632;2024-02-21T11:09:52;10.30;;;2.78;;
23230;SDS011;11784;49.818;8.632;2024-02-21T11:12:20;6.97;;;2.73;;
23230;SDS011;11784;49.818;8.632;2024-02-21T11:14:46;7.60;;;2.60;;
23230;SDS011;11784;49.818;8.632;2024-02-21T11:17:15;9.07;;;3.50;;
23230;SDS011;11784;49.818;8.632;2024-02-21T11:19:46;9.70;;;2.60;;
23230;SDS011;11784;49.818;8.632;2024-02-21T11:22:16;12.48;;;2.80;;
23230;SDS011;11784;49.818;8.632;2024-02-21T11:24:42;9.75;;;3.13;;
23230;SDS011;11784;49.818;8.632;2024-02-21T11:29:44;9.45;;;2.50;;
23230;SDS011;11784;49.818;8.632;2024-02-21T11:32:11;10.85;;;2.90;;
23230;SDS011;11784;49.818;8.632;2024-02-21T11:34:40;6.88;;;2.60;;
23230;SDS011;11784;49.818;8.632;2024-02-21T11:37:12;10.43;;;3.13;;
23230;SDS011;11784;49.818;8.632;2024-02-21T11:39:40;8.07;;;2.10;;
23230;SDS011;11784;49.818;8.632;2024-02-21T11:42:07;8.10;;;2.70;;
23230;SDS011;11784;49.818;8.632;2024-02-21T11:44:36;9.77;;;2.28;;
23230;SDS011;11784;49.818;8.632;2024-02-21T11:47:07;7.57;;;2.33;;
23230;SDS011;11784;49.818;8.632;2024-02-21T11:49:37;12.27;;;3.40;;
23230;SDS011;11784;49.818;8.632;2024-02-21T11:52:04;10.82;;;2.50;;
23230;SDS011;11784;49.818;8.632;2024-02-21T11:54:30;7.65;;;2.45;;
23230;SDS011;11784;49.818;8.632;2024-02-21T11:56:56;5.90;;;2.28;;
23230;SDS011;11784;49.818;8.632;2024-02-21T11:59:22;11.63;;;2.42;;
23230;SDS011;11784;49.818;8.632;2024-02-21T12:01:49;6.40;;;2.22;;
23230;SDS011;11784;49.818;8.632;2024-02-21T12:04:17;9.00;;;2.13;;
23230;SDS011;11784;49.818;8.632;2024-02-21T12:06:44;5.53;;;1.83;;
23230;SDS011;11784;49.818;8.632;2024-02-21T12:09:13;9.52;;;1.92;;
23230;SDS011;11784;49.818;8.632;2024-02-21T12:11:41;15.68;;;2.60;;
23230;SDS011;11784;49.818;8.632;2024-02-21T12:14:07;8.07;;;2.45;;
23230;SDS011;11784;49.818;8.632;2024-02-21T12:16:34;6.95;;;2.33;;
23230;SDS011;11784;49.818;8.632;2024-02-21T12:19:02;7.40;;;2.00;;
23230;SDS011;11784;49.818;8.632;2024-02-21T12:21:32;5.53;;;2.13;;
23230;SDS011;11784;49.818;8.632;2024-02-21T12:24:11;8.02;;;1.88;;
23230;SDS011;11784;49.818;8.632;2024-02-21T12:26:37;10.38;;;2.45;;
23230;SDS011;11784;49.818;8.632;2024-02-21T12:29:03;13.07;;;2.95;;
23230;SDS011;11784;49.818;8.632;2024-02-21T12:31:29;11.88;;;3.53;;
23230;SDS011;11784;49.818;8.632;2024-02-21T12:33:55;8.52;;;2.10;;
23230;SDS011;11784;49.818;8.632;2024-02-21T12:36:21;8.43;;;2.00;;
23230;SDS011;11784;49.818;8.632;2024-02-21T12:38:47;6.43;;;2.28;;
23230;SDS011;11784;49.818;8.632;2024-02-21T12:41:14;7.82;;;2.22;;
23230;SDS011;11784;49.818;8.632;2024-02-21T12:43:40;7.07;;;2.10;;
23230;SDS011;11784;49.818;8.632;2024-02-21T12:46:06;8.55;;;2.08;;
23230;SDS011;11784;49.818;8.632;2024-02-21T12:48:32;8.18;;;1.73;;
23230;SDS011;11784;49.818;8.632;2024-02-21T12:50:58;5.95;;;1.73;;
23230;SDS011;11784;49.818;8.632;2024-02-21T12:53:24;5.88;;;2.00;;
23230;SDS011;11784;49.818;8.632;2024-02-21T12:55:51;10.43;;;1.83;;
23230;SDS011;11784;49.818;8.632;2024-02-21T12:58:17;8.27;;;1.83;;
23230;SDS011;11784;49.818;8.632;2024-02-21T13:00:42;6.53;;;1.75;;
23230;SDS011;11784;49.818;8.632;2024-02-21T13:03:09;5.43;;;1.13;;
23230;SDS011;11784;49.818;8.632;2024-02-21T13:05:36;5.82;;;1.60;;
23230;SDS011;11784;49.818;8.632;2024-02-21T13:08:02;7.15;;;2.10;;
23230;SDS011;11784;49.818;8.632;2024-02-21T13:10:28;6.25;;;1.73;;
23230;SDS011;11784;49.818;8.632;2024-02-21T13:12:54;7.78;;;1.67;;
23230;SDS011;11784;49.818;8.632;2024-02-21T13:15:20;7.28;;;1.55;;
23230;SDS011;11784;49.818;8.632;2024-02-21T13:17:46;7.50;;;1.70;;
23230;SDS011;11784;49.818;8.632;2024-02-21T13:20:11;6.07;;;1.48;;
23230;SDS011;11784;49.818;8.632;2024-02-21T13:22:37;6.18;;;1.75;;
23230;SDS011;11784;49.818;8.632;2024-02-21T13:25:04;6.20;;;1.83;;
23230;SDS011;11784;49.818;8.632;2024-02-21T13:27:32;5.95;;;1.90;;
23230;SDS011;11784;49.818;8.632;2024-02-21T13:29:58;14.15;;;2.10;;
23230;SDS011;11784;49.818;8.632;2024-02-21T13:32:25;15.95;;;2.63;;
23230;SDS011;11784;49.818;8.632;2024-02-21T13:34:51;10.18;;;2.17;;
23230;SDS011;11784;49.818;8.632;2024-02-21T13:37:17;6.88;;;1.42;;
23230;SDS011;11784;49.818;8.632;2024-02-21T13:39:43;7.22;;;2.13;;
23230;SDS011;11784;49.818;8.632;2024-02-21T13:42:09;4.55;;;1.35;;
23230;SDS011;11784;49.818;8.632;2024-02-21T13:44:35;6.78;;;2.08;;
23230;SDS011;11784;49.818;8.632;2024-02-21T13:47:02;6.43;;;2.45;;
23230;SDS011;11784;49.818;8.632;2024-02-21T13:49:29;4.45;;;1.67;;
23230;SDS011;11784;49.818;8.632;2024-02-21T13:51:56;9.57;;;1.85;;
23230;SDS011;11784;49.818;8.632;2024-02-21T13:54:22;10.70;;;2.22;;
23230;SDS011;11784;49.818;8.632;2024-02-21T13:56:49;9.43;;;2.05;;
23230;SDS011;11784;49.818;8.632;2024-02-21T13:59:15;9.75;;;1.92;;
23230;SDS011;11784;49.818;8.632;2024-02-21T14:01:41;10.40;;;3.10;;
23230;SDS011;11784;49.818;8.632;2024-02-21T14:04:07;5.32;;;1.80;;
23230;SDS011;11784;49.818;8.632;2024-02-21T14:06:33;8.02;;;2.00;;
23230;SDS011;11784;49.818;8.632;2024-02-21T14:09:00;6.13;;;1.60;;
23230;SDS011;11784;49.818;8.632;2024-02-21T14:11:26;6.40;;;1.60;;
23230;SDS011;11784;49.818;8.632;2024-02-21T14:13:52;8.95;;;1.67;;
23230;SDS011;11784;49.818;8.632;2024-02-21T14:16:22;9.82;;;1.70;;
23230;SDS011;11784;49.818;8.632;2024-02-21T14:18:48;5.97;;;1.45;;
23230;SDS011;11784;49.818;8.632;2024-02-21T14:21:14;5.15;;;1.50;;
23230;SDS011;11784;49.818;8.632;2024-02-21T14:23:40;6.53;;;2.15;;
23230;SDS011;11784;49.818;8.632;2024-02-21T14:26:06;4.88;;;1.95;;
23230;SDS011;11784;49.818;8.632;2024-02-21T14:28:32;5.32;;;1.73;;
23230;SDS011;11784;49.818;8.632;2024-02-21T14:31:01;10.25;;;1.80;;
23230;SDS011;11784;49.818;8.632;2024-02-21T14:33:28;6.43;;;1.70;;
23230;SDS011;11784;49.818;8.632;2024-02-21T14:35:55;4.65;;;1.73;;
23230;SDS011;11784;49.818;8.632;2024-02-21T14:38:21;4.45;;;1.50;;
23230;SDS011;11784;49.818;8.632;2024-02-21T14:40:47;4.00;;;1.55;;
23230;SDS011;11784;49.818;8.632;2024-02-21T14:43:14;9.35;;;1.67;;
23230;SDS011;11784;49.818;8.632;2024-02-21T14:45:40;6.47;;;1.95;;